createdAt,value
2018-10-03T00:00:41.532Z,0
2018-10-03T00:01:49.597Z,0
2018-10-03T00:02:57.704Z,0
2018-10-03T00:04:05.735Z,0
2018-10-03T00:05:13.795Z,0
2018-10-03T00:06:21.865Z,0
2018-10-03T00:07:29.918Z,0
2018-10-03T00:08:37.983Z,0
2018-10-03T00:09:46.035Z,0
2018-10-03T00:10:54.105Z,0
2018-10-03T00:12:02.171Z,0
2018-10-03T00:13:10.248Z,0
2018-10-03T00:14:18.297Z,0
2018-10-03T00:15:26.357Z,0
2018-10-03T00:16:34.423Z,0
2018-10-03T00:17:42.508Z,0
2018-10-03T00:18:50.541Z,0
2018-10-03T00:19:58.605Z,0
2018-10-03T00:21:06.674Z,0
2018-10-03T00:22:14.774Z,0
2018-10-03T00:23:22.876Z,0
2018-10-03T00:24:30.869Z,0
2018-10-03T00:25:38.944Z,0
2018-10-03T00:26:47.012Z,0
2018-10-03T00:27:55.054Z,0
2018-10-03T00:29:03.094Z,0
2018-10-03T00:30:11.169Z,0
2018-10-03T00:31:19.264Z,0
2018-10-03T00:32:27.401Z,0
2018-10-03T00:33:35.370Z,0
2018-10-03T00:34:43.404Z,0
2018-10-03T00:35:51.501Z,0
2018-10-03T00:36:59.555Z,0
2018-10-03T00:38:07.631Z,0
2018-10-03T00:39:15.695Z,0
2018-10-03T00:40:23.748Z,0
2018-10-03T00:41:31.816Z,0
2018-10-03T00:42:39.872Z,0
2018-10-03T00:43:47.930Z,0
2018-10-03T00:44:56.008Z,0
2018-10-03T00:46:04.066Z,0
2018-10-03T00:47:12.134Z,0
2018-10-03T00:48:20.195Z,0
2018-10-03T00:49:28.258Z,0
2018-10-03T00:50:36.323Z,0
2018-10-03T00:51:44.377Z,0
2018-10-03T00:52:52.433Z,0
2018-10-03T00:54:00.513Z,0
2018-10-03T00:55:08.568Z,0
2018-10-03T00:56:16.637Z,0
2018-10-03T00:57:24.717Z,0
2018-10-03T00:58:32.754Z,0
2018-10-03T00:59:40.840Z,0
2018-10-03T01:00:48.895Z,0
2018-10-03T01:01:56.959Z,0
2018-10-03T01:03:05.025Z,0
2018-10-03T01:04:13.088Z,0
2018-10-03T01:05:21.140Z,0
2018-10-03T01:06:29.218Z,0
2018-10-03T01:07:37.281Z,0
2018-10-03T01:08:45.327Z,0
2018-10-03T01:09:53.369Z,0
2018-10-03T01:11:01.470Z,0
2018-10-03T01:12:09.520Z,0
2018-10-03T01:13:17.585Z,0
2018-10-03T01:14:25.661Z,0
2018-10-03T01:15:33.719Z,0
2018-10-03T01:16:41.788Z,0
2018-10-03T01:17:49.844Z,0
2018-10-03T01:18:57.905Z,0
2018-10-03T01:20:05.972Z,0
2018-10-03T01:21:14.040Z,0
2018-10-03T01:22:22.089Z,0
2018-10-03T01:23:30.165Z,0
2018-10-03T01:24:38.239Z,0
2018-10-03T01:25:46.298Z,0
2018-10-03T01:26:54.364Z,0
2018-10-03T01:28:02.410Z,0
2018-10-03T01:29:10.490Z,0
2018-10-03T01:30:18.558Z,0
2018-10-03T01:31:26.602Z,0
2018-10-03T01:32:34.677Z,0
2018-10-03T01:33:42.700Z,0
2018-10-03T01:34:50.801Z,0
2018-10-03T01:35:58.862Z,0
2018-10-03T01:37:06.926Z,0
2018-10-03T01:38:15.060Z,0
2018-10-03T01:39:23.034Z,0
2018-10-03T01:40:31.115Z,0
2018-10-03T01:41:39.190Z,0
2018-10-03T01:42:47.248Z,0
2018-10-03T01:43:55.317Z,0
2018-10-03T01:45:03.338Z,0
2018-10-03T01:46:11.431Z,0
2018-10-03T01:47:19.501Z,0
2018-10-03T01:48:27.564Z,0
2018-10-03T01:49:35.622Z,0
2018-10-03T01:50:43.684Z,0
2018-10-03T01:51:51.765Z,0
2018-10-03T01:52:59.908Z,0
2018-10-03T01:54:07.877Z,0
2018-10-03T01:55:15.930Z,0
2018-10-03T01:56:24.009Z,0
2018-10-03T01:57:32.074Z,0
2018-10-03T01:58:40.133Z,0
2018-10-03T01:59:48.186Z,0
2018-10-03T02:00:56.260Z,0
2018-10-03T02:02:04.337Z,0
2018-10-03T02:03:12.378Z,0
2018-10-03T02:04:20.444Z,0
2018-10-03T02:05:28.513Z,0
2018-10-03T02:06:36.577Z,0
2018-10-03T02:07:44.642Z,0
2018-10-03T02:08:52.683Z,0
2018-10-03T02:10:00.787Z,0
2018-10-03T02:11:08.840Z,0
2018-10-03T02:12:16.884Z,0
2018-10-03T02:13:24.946Z,0
2018-10-03T02:14:32.992Z,0
2018-10-03T02:15:41.099Z,0
2018-10-03T02:16:49.145Z,0
2018-10-03T02:17:57.215Z,0
2018-10-03T02:19:05.282Z,0
2018-10-03T02:20:13.319Z,0
2018-10-03T02:21:21.397Z,0
2018-10-03T02:22:29.473Z,0
2018-10-03T02:23:37.520Z,0
2018-10-03T02:24:45.595Z,0
2018-10-03T02:25:53.644Z,0
2018-10-03T02:27:01.711Z,0
2018-10-03T02:28:09.774Z,0
2018-10-03T02:29:17.838Z,0
2018-10-03T02:30:25.890Z,0
2018-10-03T02:31:34.058Z,0
2018-10-03T02:32:42.030Z,0
2018-10-03T02:33:50.094Z,0
2018-10-03T02:34:58.156Z,0
2018-10-03T02:36:06.227Z,0
2018-10-03T02:37:14.280Z,0
2018-10-03T02:38:22.361Z,0
2018-10-03T02:39:30.411Z,0
2018-10-03T02:40:38.470Z,0
2018-10-03T02:41:46.532Z,0
2018-10-03T02:42:54.613Z,0
2018-10-03T02:44:02.638Z,0
2018-10-03T02:45:10.716Z,0
2018-10-03T02:46:18.784Z,0
2018-10-03T02:47:26.852Z,0
2018-10-03T02:48:34.915Z,0
2018-10-03T02:49:42.981Z,0
2018-10-03T02:50:51.034Z,0
2018-10-03T02:51:59.122Z,0
2018-10-03T02:53:07.162Z,0
2018-10-03T02:54:15.234Z,0
2018-10-03T02:55:23.294Z,0
2018-10-03T02:56:31.367Z,0
2018-10-03T02:57:39.411Z,0
2018-10-03T02:58:47.484Z,0
2018-10-03T02:59:55.543Z,0
2018-10-03T03:01:03.622Z,0
2018-10-03T03:02:11.672Z,0
2018-10-03T03:03:19.731Z,0
2018-10-03T03:04:27.801Z,0
2018-10-03T03:05:35.868Z,0
2018-10-03T03:06:43.923Z,0
2018-10-03T03:07:51.992Z,0
2018-10-03T03:09:00.189Z,0
2018-10-03T03:10:08.124Z,0
2018-10-03T03:11:16.188Z,0
2018-10-03T03:12:24.240Z,0
2018-10-03T03:13:32.309Z,0
2018-10-03T03:14:40.374Z,0
2018-10-03T03:15:48.426Z,0
2018-10-03T03:16:56.504Z,0
2018-10-03T03:18:04.558Z,0
2018-10-03T03:19:12.620Z,0
2018-10-03T03:20:20.683Z,0
2018-10-03T03:21:28.754Z,0
2018-10-03T03:22:36.808Z,0
2018-10-03T03:23:44.909Z,0
2018-10-03T03:24:52.927Z,0
2018-10-03T03:26:01.006Z,0
2018-10-03T03:27:09.063Z,0
2018-10-03T03:28:17.157Z,0
2018-10-03T03:29:25.186Z,0
2018-10-03T03:30:33.227Z,0
2018-10-03T03:31:41.321Z,0
2018-10-03T03:32:49.407Z,0
2018-10-03T03:33:57.452Z,0
2018-10-03T03:35:05.511Z,0
2018-10-03T03:36:13.567Z,0
2018-10-03T03:37:21.662Z,0
2018-10-03T03:38:29.703Z,0
2018-10-03T03:39:37.775Z,0
2018-10-03T03:40:45.814Z,0
2018-10-03T03:41:53.900Z,0
2018-10-03T03:43:01.965Z,0
2018-10-03T03:44:10.022Z,0
2018-10-03T03:45:18.127Z,0
2018-10-03T03:46:26.158Z,0
2018-10-03T03:47:34.207Z,0
2018-10-03T03:48:42.280Z,0
2018-10-03T03:49:50.340Z,0
2018-10-03T03:50:58.410Z,0
2018-10-03T03:52:06.465Z,0
2018-10-03T03:53:14.532Z,0
2018-10-03T03:54:22.568Z,0
2018-10-03T03:55:30.674Z,0
2018-10-03T03:56:38.705Z,0
2018-10-03T03:57:46.781Z,0
2018-10-03T03:58:54.841Z,0
2018-10-03T04:00:02.885Z,0
2018-10-03T04:01:10.972Z,0
2018-10-03T04:02:19.038Z,0
2018-10-03T04:03:27.090Z,0
2018-10-03T04:04:35.182Z,0
2018-10-03T04:05:43.201Z,0
2018-10-03T04:06:51.297Z,0
2018-10-03T04:07:59.352Z,0
2018-10-03T04:09:07.448Z,0
2018-10-03T04:10:15.488Z,0
2018-10-03T04:11:23.531Z,0
2018-10-03T04:12:31.608Z,0
2018-10-03T04:13:39.679Z,0
2018-10-03T04:14:47.752Z,0
2018-10-03T04:15:55.798Z,0
2018-10-03T04:17:03.851Z,0
2018-10-03T04:18:11.924Z,0
2018-10-03T04:19:19.999Z,0
2018-10-03T04:20:28.052Z,0
2018-10-03T04:21:36.106Z,0
2018-10-03T04:22:44.173Z,0
2018-10-03T04:23:52.239Z,0
2018-10-03T04:25:00.285Z,0
2018-10-03T04:26:08.380Z,0
2018-10-03T04:27:16.430Z,0
2018-10-03T04:28:24.506Z,0
2018-10-03T04:29:32.533Z,0
2018-10-03T04:30:40.623Z,0
2018-10-03T04:31:48.693Z,0
2018-10-03T04:32:56.753Z,0
2018-10-03T04:34:04.809Z,0
2018-10-03T04:35:12.904Z,0
2018-10-03T04:36:21.693Z,0
2018-10-03T04:37:29.464Z,0
2018-10-03T04:38:37.258Z,0
2018-10-03T04:39:45.116Z,0
2018-10-03T04:40:53.159Z,0
2018-10-03T04:42:02.812Z,0
2018-10-03T04:43:09.731Z,0
2018-10-03T04:44:17.383Z,0
2018-10-03T04:45:25.443Z,0
2018-10-03T04:46:33.480Z,0
2018-10-03T04:47:41.567Z,0
2018-10-03T04:48:49.636Z,0
2018-10-03T04:49:57.694Z,0
2018-10-03T04:51:06.867Z,0
2018-10-03T04:52:13.822Z,0
2018-10-03T04:53:21.876Z,0
2018-10-03T04:54:30.081Z,0
2018-10-03T04:55:37.983Z,0
2018-10-03T04:56:46.062Z,0
2018-10-03T04:57:54.134Z,0
2018-10-03T04:59:02.208Z,0
2018-10-03T05:00:10.260Z,0
2018-10-03T05:01:18.318Z,0
2018-10-03T05:02:26.365Z,0
2018-10-03T05:03:34.445Z,0
2018-10-03T05:04:42.481Z,0
2018-10-03T05:05:50.567Z,0
2018-10-03T05:06:58.660Z,0
2018-10-03T05:08:06.700Z,0
2018-10-03T05:09:14.761Z,0
2018-10-03T05:10:22.781Z,0
2018-10-03T05:11:30.970Z,0
2018-10-03T05:12:38.948Z,0
2018-10-03T05:13:47.005Z,0
2018-10-03T05:14:55.058Z,0
2018-10-03T05:16:03.148Z,0
2018-10-03T05:17:11.185Z,0
2018-10-03T05:18:19.262Z,0
2018-10-03T05:19:27.515Z,0
2018-10-03T05:20:35.386Z,0
2018-10-03T05:21:43.423Z,0
2018-10-03T05:22:51.491Z,0
2018-10-03T05:24:00.494Z,0
2018-10-03T05:25:08.135Z,0
2018-10-03T05:26:16.409Z,0
2018-10-03T05:27:24.415Z,0
2018-10-03T05:28:32.498Z,0
2018-10-03T05:29:40.582Z,0
2018-10-03T05:30:49.661Z,0
2018-10-03T05:31:56.011Z,0
2018-10-03T05:33:05.727Z,0
2018-10-03T05:34:12.682Z,0
2018-10-03T05:35:20.195Z,0
2018-10-03T05:36:28.960Z,0
2018-10-03T05:37:36.315Z,0
2018-10-03T05:38:45.124Z,0
2018-10-03T05:39:52.877Z,0
2018-10-03T05:41:01.121Z,0
2018-10-03T05:42:08.562Z,5
2018-10-03T05:43:16.909Z,5
2018-10-03T05:44:25.345Z,5
2018-10-03T05:45:33.446Z,5
2018-10-03T05:46:41.172Z,5
2018-10-03T05:47:49.093Z,10
2018-10-03T05:48:57.580Z,10
2018-10-03T05:50:05.015Z,10
2018-10-03T05:51:13.192Z,10
2018-10-03T05:52:21.581Z,10
2018-10-03T05:53:29.867Z,10
2018-10-03T05:54:38.022Z,15
2018-10-03T05:55:46.074Z,15
2018-10-03T05:56:54.102Z,15
2018-10-03T05:58:01.461Z,15
2018-10-03T05:59:09.514Z,15
2018-10-03T06:00:17.578Z,15
2018-10-03T06:01:26.233Z,15
2018-10-03T06:02:34.087Z,15
2018-10-03T06:03:41.907Z,15
2018-10-03T06:04:49.834Z,15
2018-10-03T06:05:58.400Z,20
2018-10-03T06:07:05.968Z,25
2018-10-03T06:08:14.018Z,25
2018-10-03T06:09:22.082Z,30
2018-10-03T06:10:30.179Z,30
2018-10-03T06:11:38.218Z,30
2018-10-03T06:12:46.263Z,30
2018-10-03T06:13:54.324Z,30
2018-10-03T06:15:02.407Z,30
2018-10-03T06:16:10.477Z,30
2018-10-03T06:17:18.531Z,30
2018-10-03T06:18:26.590Z,30
2018-10-03T06:19:34.658Z,35
2018-10-03T06:20:42.979Z,35
2018-10-03T06:21:51.340Z,35
2018-10-03T06:22:58.849Z,35
2018-10-03T06:24:06.901Z,40
2018-10-03T06:25:14.981Z,40
2018-10-03T06:26:23.023Z,45
2018-10-03T06:27:31.104Z,50
2018-10-03T06:28:39.520Z,55
2018-10-03T06:29:47.495Z,60
2018-10-03T06:30:55.286Z,60
2018-10-03T06:32:03.327Z,60
2018-10-03T06:33:11.610Z,60
2018-10-03T06:34:20.057Z,65
2018-10-03T06:35:28.097Z,65
2018-10-03T06:36:36.159Z,65
2018-10-03T06:37:43.649Z,65
2018-10-03T06:38:51.737Z,65
2018-10-03T06:40:00.324Z,65
2018-10-03T06:41:07.851Z,70
2018-10-03T06:42:16.046Z,75
2018-10-03T06:43:24.727Z,80
2018-10-03T06:44:32.681Z,80
2018-10-03T06:45:40.147Z,75
2018-10-03T06:46:48.597Z,70
2018-10-03T06:47:56.983Z,80
2018-10-03T06:49:04.743Z,85
2018-10-03T06:50:12.356Z,80
2018-10-03T06:51:20.475Z,80
2018-10-03T06:52:29.458Z,80
2018-10-03T06:53:36.556Z,85
2018-10-03T06:54:44.619Z,85
2018-10-03T06:55:52.706Z,80
2018-10-03T06:57:01.192Z,80
2018-10-03T06:58:08.949Z,85
2018-10-03T06:59:17.107Z,90
2018-10-03T07:00:25.649Z,95
2018-10-03T07:01:33.693Z,95
2018-10-03T07:02:42.580Z,100
2018-10-03T07:03:49.119Z,100
2018-10-03T07:04:57.188Z,105
2018-10-03T07:06:05.274Z,115
2018-10-03T07:07:13.277Z,115
2018-10-03T07:08:21.538Z,125
2018-10-03T07:09:29.454Z,135
2018-10-03T07:10:37.521Z,145
2018-10-03T07:11:45.594Z,145
2018-10-03T07:12:53.657Z,145
2018-10-03T07:14:01.715Z,145
2018-10-03T07:15:09.769Z,150
2018-10-03T07:16:17.829Z,145
2018-10-03T07:17:25.888Z,135
2018-10-03T07:18:34.380Z,125
2018-10-03T07:19:42.765Z,130
2018-10-03T07:20:50.618Z,135
2018-10-03T07:21:58.155Z,145
2018-10-03T07:23:06.206Z,155
2018-10-03T07:24:15.507Z,165
2018-10-03T07:25:22.628Z,180
2018-10-03T07:26:30.673Z,190
2018-10-03T07:27:38.475Z,195
2018-10-03T07:28:46.553Z,200
2018-10-03T07:29:54.594Z,200
2018-10-03T07:31:03.267Z,200
2018-10-03T07:32:10.738Z,195
2018-10-03T07:33:18.803Z,200
2018-10-03T07:34:26.859Z,205
2018-10-03T07:35:36.488Z,205
2018-10-03T07:36:42.976Z,195
2018-10-03T07:37:52.589Z,185
2018-10-03T07:38:59.110Z,180
2018-10-03T07:40:07.467Z,175
2018-10-03T07:41:15.316Z,175
2018-10-03T07:42:23.289Z,170
2018-10-03T07:43:31.375Z,160
2018-10-03T07:44:39.438Z,155
2018-10-03T07:45:47.903Z,155
2018-10-03T07:46:55.907Z,150
2018-10-03T07:48:03.951Z,130
2018-10-03T07:49:12.034Z,115
2018-10-03T07:50:20.042Z,105
2018-10-03T07:51:27.833Z,100
2018-10-03T07:52:35.898Z,100
2018-10-03T07:53:44.061Z,110
2018-10-03T07:54:56.079Z,120
2018-10-03T07:56:00.408Z,125
2018-10-03T07:57:08.162Z,130
2018-10-03T07:58:16.240Z,130
2018-10-03T07:59:24.274Z,125
2018-10-03T08:00:32.778Z,120
2018-10-03T08:01:40.485Z,110
2018-10-03T08:02:48.467Z,105
2018-10-03T08:03:56.540Z,100
2018-10-03T08:05:04.626Z,95
2018-10-03T08:06:13.076Z,90
2018-10-03T08:07:20.725Z,90
2018-10-03T08:08:29.011Z,100
2018-10-03T08:09:37.188Z,110
2018-10-03T08:10:45.207Z,125
2018-10-03T08:11:53.665Z,125
2018-10-03T08:13:01.084Z,115
2018-10-03T08:14:09.822Z,115
2018-10-03T08:15:17.187Z,130
2018-10-03T08:16:25.496Z,140
2018-10-03T08:17:33.988Z,145
2018-10-03T08:18:41.385Z,150
2018-10-03T08:19:49.446Z,150
2018-10-03T08:20:57.801Z,140
2018-10-03T08:22:05.579Z,140
2018-10-03T08:23:13.989Z,140
2018-10-03T08:24:21.736Z,150
2018-10-03T08:25:29.774Z,170
2018-10-03T08:26:37.829Z,170
2018-10-03T08:27:45.901Z,160
2018-10-03T08:28:53.973Z,155
2018-10-03T08:30:02.067Z,170
2018-10-03T08:31:10.104Z,190
2018-10-03T08:32:18.215Z,180
2018-10-03T08:33:26.236Z,160
2018-10-03T08:34:34.279Z,160
2018-10-03T08:35:42.367Z,150
2018-10-03T08:36:50.436Z,140
2018-10-03T08:37:58.492Z,140
2018-10-03T08:39:06.562Z,140
2018-10-03T08:40:14.625Z,155
2018-10-03T08:41:24.105Z,185
2018-10-03T08:42:30.746Z,205
2018-10-03T08:43:38.828Z,215
2018-10-03T08:44:46.867Z,225
2018-10-03T08:45:54.944Z,220
2018-10-03T08:47:02.967Z,220
2018-10-03T08:48:11.063Z,230
2018-10-03T08:49:19.133Z,250
2018-10-03T08:50:27.209Z,265
2018-10-03T08:51:35.259Z,260
2018-10-03T08:52:43.304Z,225
2018-10-03T08:53:51.396Z,180
2018-10-03T08:54:59.474Z,155
2018-10-03T08:56:07.506Z,160
2018-10-03T08:57:16.398Z,175
2018-10-03T08:58:23.736Z,180
2018-10-03T08:59:32.112Z,190
2018-10-03T09:00:40.144Z,175
2018-10-03T09:01:47.850Z,155
2018-10-03T09:02:55.910Z,165
2018-10-03T09:04:03.988Z,195
2018-10-03T09:05:12.027Z,245
2018-10-03T09:06:20.113Z,325
2018-10-03T09:07:28.171Z,350
2018-10-03T09:08:36.248Z,320
2018-10-03T09:09:44.413Z,280
2018-10-03T09:10:52.402Z,260
2018-10-03T09:12:00.429Z,245
2018-10-03T09:13:08.549Z,230
2018-10-03T09:14:16.569Z,225
2018-10-03T09:15:24.627Z,245
2018-10-03T09:16:32.668Z,290
2018-10-03T09:17:40.776Z,290
2018-10-03T09:18:48.822Z,290
2018-10-03T09:19:56.888Z,305
2018-10-03T09:21:04.949Z,340
2018-10-03T09:22:12.996Z,400
2018-10-03T09:23:21.067Z,430
2018-10-03T09:24:29.137Z,440
2018-10-03T09:25:37.199Z,445
2018-10-03T09:26:45.293Z,455
2018-10-03T09:27:53.322Z,430
2018-10-03T09:29:01.401Z,390
2018-10-03T09:30:09.481Z,415
2018-10-03T09:31:17.553Z,435
2018-10-03T09:32:25.617Z,440
2018-10-03T09:33:33.663Z,440
2018-10-03T09:34:41.735Z,430
2018-10-03T09:35:49.827Z,415
2018-10-03T09:36:57.882Z,410
2018-10-03T09:38:05.946Z,410
2018-10-03T09:39:14.019Z,410
2018-10-03T09:40:22.067Z,405
2018-10-03T09:41:30.138Z,385
2018-10-03T09:42:38.213Z,365
2018-10-03T09:43:46.267Z,355
2018-10-03T09:44:54.416Z,370
2018-10-03T09:46:02.416Z,385
2018-10-03T09:47:10.473Z,390
2018-10-03T09:48:18.548Z,415
2018-10-03T09:49:26.617Z,440
2018-10-03T09:50:34.678Z,450
2018-10-03T09:51:42.717Z,460
2018-10-03T09:52:50.824Z,455
2018-10-03T09:53:58.900Z,440
2018-10-03T09:55:11.198Z,430
2018-10-03T09:56:19.254Z,425
2018-10-03T09:57:27.319Z,415
2018-10-03T09:58:35.396Z,405
2018-10-03T09:59:43.432Z,405
2018-10-03T10:00:51.602Z,385
2018-10-03T10:01:59.648Z,380
2018-10-03T10:03:07.657Z,395
2018-10-03T10:04:18.346Z,395
2018-10-03T10:05:26.430Z,385
2018-10-03T10:06:34.478Z,385
2018-10-03T10:07:42.547Z,380
2018-10-03T10:08:55.066Z,395
2018-10-03T10:10:02.932Z,410
2018-10-03T10:11:11.088Z,415
2018-10-03T10:12:19.229Z,415
2018-10-03T10:13:27.128Z,415
2018-10-03T10:14:35.192Z,415
2018-10-03T10:15:43.245Z,425
2018-10-03T10:16:51.342Z,440
2018-10-03T10:17:59.603Z,460
2018-10-03T10:19:08.270Z,485
2018-10-03T10:20:45.748Z,480
2018-10-03T10:21:44.825Z,480
2018-10-03T10:22:52.871Z,465
2018-10-03T10:24:00.967Z,445
2018-10-03T10:25:09.043Z,440
2018-10-03T10:26:17.096Z,445
2018-10-03T10:27:25.193Z,460
2018-10-03T10:28:33.211Z,465
2018-10-03T10:29:41.322Z,460
2018-10-03T10:30:49.389Z,450
2018-10-03T10:31:57.526Z,445
2018-10-03T10:33:05.567Z,450
2018-10-03T10:34:13.588Z,475
2018-10-03T10:35:21.643Z,490
2018-10-03T10:36:29.745Z,490
2018-10-03T10:37:37.840Z,490
2018-10-03T10:38:46.871Z,505
2018-10-03T10:39:54.924Z,510
2018-10-03T10:41:03.014Z,525
2018-10-03T10:42:11.066Z,520
2018-10-03T10:43:19.158Z,535
2018-10-03T10:44:27.256Z,525
2018-10-03T10:45:35.286Z,500
2018-10-03T10:46:43.392Z,465
2018-10-03T10:47:51.427Z,405
2018-10-03T10:48:59.499Z,360
2018-10-03T10:50:07.624Z,330
2018-10-03T10:51:15.633Z,285
2018-10-03T10:52:23.723Z,285
2018-10-03T10:53:31.770Z,305
2018-10-03T10:54:39.847Z,365
2018-10-03T10:55:47.903Z,395
2018-10-03T10:56:55.996Z,420
2018-10-03T10:58:04.053Z,450
2018-10-03T10:59:12.119Z,470
2018-10-03T11:00:20.192Z,485
2018-10-03T11:01:28.274Z,510
2018-10-03T11:02:36.321Z,535
2018-10-03T11:03:44.390Z,525
2018-10-03T11:04:52.454Z,530
2018-10-03T11:06:00.560Z,545
2018-10-03T11:07:08.612Z,550
2018-10-03T11:08:16.678Z,555
2018-10-03T11:09:24.760Z,560
2018-10-03T11:10:32.831Z,565
2018-10-03T11:11:40.890Z,560
2018-10-03T11:12:48.949Z,540
2018-10-03T11:13:57.027Z,530
2018-10-03T11:15:05.109Z,540
2018-10-03T11:16:13.141Z,545
2018-10-03T11:17:21.231Z,540
2018-10-03T11:18:29.320Z,550
2018-10-03T11:19:37.390Z,550
2018-10-03T11:20:45.453Z,555
2018-10-03T11:21:53.508Z,555
2018-10-03T11:23:01.608Z,555
2018-10-03T11:24:09.768Z,540
2018-10-03T11:25:17.746Z,530
2018-10-03T11:26:25.799Z,515
2018-10-03T11:27:33.873Z,510
2018-10-03T11:28:41.947Z,500
2018-10-03T11:29:50.018Z,485
2018-10-03T11:30:58.085Z,485
2018-10-03T11:32:06.208Z,485
2018-10-03T11:33:14.243Z,485
2018-10-03T11:34:22.293Z,485
2018-10-03T11:35:30.372Z,485
2018-10-03T11:36:38.486Z,495
2018-10-03T11:37:46.532Z,490
2018-10-03T11:38:54.594Z,490
2018-10-03T11:40:02.641Z,495
2018-10-03T11:41:10.730Z,500
2018-10-03T11:42:18.808Z,500
2018-10-03T11:43:26.863Z,490
2018-10-03T11:44:34.932Z,460
2018-10-03T11:45:42.986Z,465
2018-10-03T11:46:56.943Z,465
2018-10-03T11:48:04.996Z,465
2018-10-03T11:49:14.494Z,455
2018-10-03T11:50:23.756Z,445
2018-10-03T11:51:34.454Z,455
2018-10-03T11:52:42.506Z,455
2018-10-03T11:53:50.590Z,465
2018-10-03T11:54:58.663Z,465
2018-10-03T11:56:06.733Z,470
2018-10-03T11:57:14.812Z,475
2018-10-03T11:58:22.849Z,500
2018-10-03T12:00:39.003Z,505
2018-10-03T12:01:47.081Z,495
2018-10-03T12:02:55.243Z,470
2018-10-03T12:04:03.186Z,485
2018-10-03T12:05:11.285Z,475
2018-10-03T12:06:19.365Z,460
2018-10-03T12:07:27.437Z,450
2018-10-03T12:08:35.519Z,420
2018-10-03T12:09:51.044Z,410
2018-10-03T12:10:59.121Z,405
2018-10-03T12:12:07.175Z,415
2018-10-03T12:13:15.247Z,420
2018-10-03T12:14:23.290Z,395
2018-10-03T12:15:31.396Z,395
2018-10-03T12:16:39.475Z,395
2018-10-03T12:17:47.545Z,400
2018-10-03T12:18:55.876Z,415
2018-10-03T12:20:03.680Z,390
2018-10-03T12:21:11.751Z,350
2018-10-03T12:22:19.829Z,340
2018-10-03T12:23:28.038Z,345
2018-10-03T12:24:35.964Z,350
2018-10-03T12:25:44.036Z,360
2018-10-03T12:26:52.112Z,355
2018-10-03T12:28:00.185Z,360
2018-10-03T12:29:08.245Z,340
2018-10-03T12:30:16.313Z,330
2018-10-03T12:31:24.383Z,335
2018-10-03T12:32:32.453Z,325
2018-10-03T12:33:40.555Z,335
2018-10-03T12:34:48.597Z,345
2018-10-03T12:35:56.669Z,345
2018-10-03T12:37:04.747Z,330
2018-10-03T12:38:12.787Z,295
2018-10-03T12:39:20.874Z,305
2018-10-03T12:40:28.990Z,335
2018-10-03T12:41:37.033Z,380
2018-10-03T12:42:45.123Z,355
2018-10-03T12:43:53.140Z,300
2018-10-03T12:45:01.308Z,270
2018-10-03T12:46:09.302Z,240
2018-10-03T12:47:17.364Z,200
2018-10-03T12:48:25.437Z,185
2018-10-03T12:49:33.479Z,190
2018-10-03T12:50:41.591Z,190
2018-10-03T12:51:49.649Z,190
2018-10-03T12:52:57.724Z,175
2018-10-03T12:54:05.779Z,190
2018-10-03T12:55:14.065Z,235
2018-10-03T12:56:22.141Z,295
2018-10-03T12:57:30.200Z,325
2018-10-03T12:58:38.258Z,295
2018-10-03T12:59:46.346Z,250
2018-10-03T13:00:57.054Z,220
2018-10-03T13:02:04.878Z,235
2018-10-03T13:03:12.934Z,290
2018-10-03T13:04:24.063Z,330
2018-10-03T13:05:31.717Z,315
2018-10-03T13:06:39.781Z,270
2018-10-03T13:07:47.848Z,205
2018-10-03T13:08:55.917Z,175
2018-10-03T13:10:04.003Z,155
2018-10-03T13:11:12.057Z,165
2018-10-03T13:12:20.128Z,190
2018-10-03T13:13:28.183Z,205
2018-10-03T13:14:36.525Z,230
2018-10-03T13:15:44.319Z,260
2018-10-03T13:16:52.384Z,285
2018-10-03T13:18:00.458Z,285
2018-10-03T13:19:08.537Z,270
2018-10-03T13:20:16.615Z,250
2018-10-03T13:21:24.683Z,240
2018-10-03T13:22:32.712Z,240
2018-10-03T13:23:40.824Z,260
2018-10-03T13:24:48.882Z,280
2018-10-03T13:25:56.956Z,285
2018-10-03T13:27:05.022Z,280
2018-10-03T13:28:13.073Z,255
2018-10-03T13:29:21.157Z,215
2018-10-03T13:30:29.294Z,185
2018-10-03T13:31:37.297Z,170
2018-10-03T13:32:45.369Z,170
2018-10-03T13:33:53.407Z,175
2018-10-03T13:35:01.517Z,185
2018-10-03T13:36:09.578Z,200
2018-10-03T13:37:17.653Z,225
2018-10-03T13:38:25.715Z,240
2018-10-03T13:39:33.788Z,260
2018-10-03T13:40:41.891Z,295
2018-10-03T13:41:49.931Z,325
2018-10-03T13:42:57.985Z,335
2018-10-03T13:44:06.104Z,335
2018-10-03T13:45:14.129Z,340
2018-10-03T13:46:22.204Z,345
2018-10-03T13:47:30.279Z,345
2018-10-03T13:48:38.338Z,355
2018-10-03T13:49:46.407Z,355
2018-10-03T13:50:54.491Z,355
2018-10-03T13:52:02.524Z,355
2018-10-03T13:53:10.617Z,350
2018-10-03T13:54:18.675Z,335
2018-10-03T13:55:26.761Z,330
2018-10-03T13:56:34.834Z,330
2018-10-03T13:57:42.862Z,320
2018-10-03T13:58:51.000Z,315
2018-10-03T13:59:59.038Z,305
2018-10-03T14:01:07.096Z,285
2018-10-03T14:02:15.169Z,275
2018-10-03T14:03:23.210Z,285
2018-10-03T14:04:31.325Z,290
2018-10-03T14:05:39.387Z,290
2018-10-03T14:06:47.453Z,290
2018-10-03T14:07:55.526Z,270
2018-10-03T14:09:03.592Z,245
2018-10-03T14:10:11.665Z,210
2018-10-03T14:11:19.748Z,175
2018-10-03T14:12:27.908Z,155
2018-10-03T14:13:35.908Z,150
2018-10-03T14:14:43.936Z,160
2018-10-03T14:15:52.013Z,185
2018-10-03T14:17:00.092Z,215
2018-10-03T14:18:08.156Z,230
2018-10-03T14:19:16.216Z,240
2018-10-03T14:20:24.271Z,230
2018-10-03T14:21:32.352Z,225
2018-10-03T14:22:40.426Z,205
2018-10-03T14:23:48.483Z,195
2018-10-03T14:24:56.561Z,175
2018-10-03T14:26:04.629Z,160
2018-10-03T14:27:12.697Z,150
2018-10-03T14:28:20.796Z,145
2018-10-03T14:29:28.853Z,150
2018-10-03T14:30:36.921Z,150
2018-10-03T14:31:44.989Z,150
2018-10-03T14:32:53.081Z,150
2018-10-03T14:34:01.131Z,150
2018-10-03T14:35:09.195Z,155
2018-10-03T14:36:17.272Z,165
2018-10-03T14:37:25.334Z,180
2018-10-03T14:38:33.370Z,195
2018-10-03T14:39:41.542Z,205
2018-10-03T14:40:49.534Z,210
2018-10-03T14:41:57.603Z,215
2018-10-03T14:43:05.670Z,215
2018-10-03T14:44:13.745Z,215
2018-10-03T14:45:21.826Z,225
2018-10-03T14:46:29.898Z,215
2018-10-03T14:47:37.944Z,205
2018-10-03T14:48:46.001Z,205
2018-10-03T14:49:54.105Z,205
2018-10-03T14:51:02.145Z,205
2018-10-03T14:52:10.257Z,200
2018-10-03T14:53:18.331Z,195
2018-10-03T14:54:26.347Z,180
2018-10-03T14:55:34.428Z,160
2018-10-03T14:56:42.495Z,155
2018-10-03T14:57:50.553Z,160
2018-10-03T14:58:58.648Z,170
2018-10-03T15:00:06.704Z,180
2018-10-03T15:01:14.763Z,185
2018-10-03T15:02:22.806Z,180
2018-10-03T15:03:30.929Z,165
2018-10-03T15:04:38.988Z,160
2018-10-03T15:05:47.045Z,150
2018-10-03T15:06:55.111Z,140
2018-10-03T15:08:03.163Z,125
2018-10-03T15:09:11.254Z,115
2018-10-03T15:10:19.317Z,110
2018-10-03T15:11:30.427Z,105
2018-10-03T15:12:35.481Z,110
2018-10-03T15:13:43.507Z,110
2018-10-03T15:14:51.592Z,115
2018-10-03T15:15:59.659Z,115
2018-10-03T15:17:07.748Z,110
2018-10-03T15:18:15.863Z,110
2018-10-03T15:19:23.865Z,120
2018-10-03T15:20:31.920Z,125
2018-10-03T15:21:40.022Z,130
2018-10-03T15:22:48.080Z,140
2018-10-03T15:23:56.150Z,150
2018-10-03T15:25:04.206Z,155
2018-10-03T15:26:12.273Z,155
2018-10-03T15:27:20.347Z,160
2018-10-03T15:28:28.408Z,160
2018-10-03T15:29:36.530Z,155
2018-10-03T15:30:44.556Z,150
2018-10-03T15:31:52.597Z,150
2018-10-03T15:33:00.693Z,155
2018-10-03T15:34:08.756Z,155
2018-10-03T15:35:16.881Z,155
2018-10-03T15:36:24.888Z,155
2018-10-03T15:37:32.931Z,150
2018-10-03T15:38:41.034Z,150
2018-10-03T15:39:49.105Z,145
2018-10-03T15:40:57.166Z,140
2018-10-03T15:42:05.298Z,145
2018-10-03T15:43:13.283Z,145
2018-10-03T15:44:21.386Z,150
2018-10-03T15:45:29.447Z,150
2018-10-03T15:46:37.502Z,145
2018-10-03T15:47:45.574Z,140
2018-10-03T15:48:53.636Z,140
2018-10-03T15:50:01.765Z,140
2018-10-03T15:51:09.790Z,140
2018-10-03T15:52:17.833Z,140
2018-10-03T15:53:25.928Z,135
2018-10-03T15:54:33.980Z,130
2018-10-03T15:55:42.049Z,130
2018-10-03T15:56:50.114Z,130
2018-10-03T15:57:58.189Z,125
2018-10-03T15:59:06.261Z,125
2018-10-03T16:00:14.322Z,120
2018-10-03T16:01:22.396Z,115
2018-10-03T16:02:30.463Z,110
2018-10-03T16:03:38.528Z,105
2018-10-03T16:04:46.594Z,100
2018-10-03T16:05:54.662Z,95